PWSweather.com
Personal Weather Stations
Station Observations
GEELONGWX1
Bell Post Hill, GeelongAU

Bell Post HillGeelongAU

Lat: -38.101, Lon: 144.326

Elevation: 204

Station Type: Davis Vantage Pro2

http://www.geelongweather.com

High Low Average
Temperature 57.5°F14.2°C 47.4°F8.6°C 51.7°F10.9°C
Dew Point 47.5°F8.6°C 40.6°F4.8°C 44.3°F6.8°C
Winds 3.5 mph 5.6 kmh Calm Calm Calm ECalm E
Wind Gusts 6.9 mph11.1 kmh -- 1.0 mph1.6 kmh
Humidity 80% 69% 76%
Pressure 30.61 in1036.6 mb 30.54 in1034.2 mb -
Precipitation 0.00 in0.0 mm - -
Hour Temp Dew Point Humidity Winds Wind Gusts Pressure Precip Precip Rate Daily Precip Total
12:00 AM 51.6°F10.9°C 44.3°F6.8°C 76% 1.2 mph E1.9 kmh E 3.5 mph5.6 kmh 30.58 in1035.6 mb - 0.00 in0.0 mm 0.00 in0.0 mm
12:10 AM 51.5°F10.8°C 44.2°F6.8°C 76% 2.3 mph E3.7 kmh E 1.2 mph1.9 kmh 30.58 in1035.6 mb - 0.00 in0.0 mm 0.00 in0.0 mm
12:20 AM 51.4°F10.8°C 44.1°F6.7°C 76% Calm Calm -- 30.57 in1035.2 mb - 0.00 in0.0 mm 0.00 in0.0 mm
12:30 AM 51.4°F10.8°C 44.1°F6.7°C 76% 2.3 mph E3.7 kmh E 3.5 mph5.6 kmh 30.57 in1035.2 mb - 0.00 in0.0 mm 0.00 in0.0 mm
12:40 AM 51.4°F10.8°C 44.1°F6.7°C 76% Calm Calm -- 30.57 in1035.2 mb - 0.00 in0.0 mm 0.00 in0.0 mm
12:50 AM 51.4°F10.8°C 44.1°F6.7°C 76% Calm Calm -- 30.56 in1034.9 mb - 0.00 in0.0 mm 0.00 in0.0 mm
01:00 AM 51.3°F10.7°C 44.0°F6.7°C 76% Calm Calm -- 30.57 in1035.2 mb - 0.00 in0.0 mm 0.00 in0.0 mm
01:10 AM 51.3°F10.7°C 44.0°F6.7°C 76% Calm Calm -- 30.56 in1034.9 mb - 0.00 in0.0 mm 0.00 in0.0 mm
01:20 AM 51.2°F10.7°C 43.9°F6.6°C 76% Calm Calm -- 30.56 in1034.9 mb - 0.00 in0.0 mm 0.00 in0.0 mm
01:30 AM 51.1°F10.6°C 43.8°F6.6°C 76% Calm Calm -- 30.56 in1034.9 mb - 0.00 in0.0 mm 0.00 in0.0 mm
01:40 AM 50.9°F10.5°C 43.3°F6.3°C 75% Calm Calm -- 30.56 in1034.9 mb - 0.00 in0.0 mm 0.00 in0.0 mm
01:50 AM 50.8°F10.4°C 43.5°F6.4°C 76% Calm Calm -- 30.56 in1034.9 mb - 0.00 in0.0 mm 0.00 in0.0 mm
02:00 AM 50.7°F10.4°C 43.4°F6.3°C 76% Calm Calm -- 30.57 in1035.2 mb - 0.00 in0.0 mm 0.00 in0.0 mm
02:10 AM 50.6°F10.3°C 43.3°F6.3°C 76% Calm Calm -- 30.57 in1035.2 mb - 0.00 in0.0 mm 0.00 in0.0 mm
02:20 AM 50.5°F10.3°C 43.2°F6.2°C 76% Calm Calm -- 30.57 in1035.2 mb - 0.00 in0.0 mm 0.00 in0.0 mm
02:30 AM 50.5°F10.3°C 43.2°F6.2°C 76% Calm Calm -- 30.57 in1035.2 mb - 0.00 in0.0 mm 0.00 in0.0 mm
02:40 AM 50.5°F10.3°C 43.2°F6.2°C 76% Calm Calm -- 30.56 in1034.9 mb - 0.00 in0.0 mm 0.00 in0.0 mm
02:50 AM 50.5°F10.3°C 43.2°F6.2°C 76% Calm Calm -- 30.56 in1034.9 mb - 0.00 in0.0 mm 0.00 in0.0 mm
03:00 AM 50.5°F10.3°C 43.2°F6.2°C 76% Calm Calm -- 30.56 in1034.9 mb - 0.00 in0.0 mm 0.00 in0.0 mm
03:10 AM 50.5°F10.3°C 43.2°F6.2°C 76% Calm Calm -- 30.55 in1034.5 mb - 0.00 in0.0 mm 0.00 in0.0 mm
03:20 AM 50.4°F10.2°C 43.2°F6.2°C 76% Calm Calm -- 30.55 in1034.5 mb - 0.00 in0.0 mm 0.00 in0.0 mm
03:30 AM 50.5°F10.3°C 43.2°F6.2°C 76% Calm Calm -- 30.55 in1034.5 mb - 0.00 in0.0 mm 0.00 in0.0 mm
03:40 AM 50.5°F10.3°C 43.2°F6.2°C 76% Calm Calm -- 30.55 in1034.5 mb - 0.00 in0.0 mm 0.00 in0.0 mm
03:50 AM 50.4°F10.2°C 43.1°F6.2°C 76% Calm Calm -- 30.55 in1034.5 mb - 0.00 in0.0 mm 0.00 in0.0 mm
04:00 AM 50.3°F10.2°C 43.0°F6.1°C 76% Calm Calm -- 30.55 in1034.5 mb - 0.00 in0.0 mm 0.00 in0.0 mm
04:10 AM 50.3°F10.2°C 43.0°F6.1°C 76% Calm Calm -- 30.55 in1034.5 mb - 0.00 in0.0 mm 0.00 in0.0 mm
04:20 AM 50.2°F10.1°C 43.3°F6.3°C 77% Calm Calm -- 30.55 in1034.5 mb - 0.00 in0.0 mm 0.00 in0.0 mm
04:30 AM 50.2°F10.1°C 43.3°F6.3°C 77% Calm Calm -- 30.56 in1034.9 mb - 0.00 in0.0 mm 0.00 in0.0 mm
04:40 AM 50.2°F10.1°C 43.2°F6.2°C 77% Calm Calm -- 30.56 in1034.9 mb - 0.00 in0.0 mm 0.00 in0.0 mm
04:50 AM 50.1°F10.1°C 43.2°F6.2°C 77% Calm Calm -- 30.56 in1034.9 mb - 0.00 in0.0 mm 0.00 in0.0 mm
05:00 AM 50.1°F10.1°C 43.2°F6.2°C 77% Calm Calm -- 30.56 in1034.9 mb - 0.00 in0.0 mm 0.00 in0.0 mm
05:10 AM 50.1°F10.1°C 43.2°F6.2°C 77% 1.2 mph SSE1.9 kmh SSE 4.6 mph7.4 kmh 30.57 in1035.2 mb - 0.00 in0.0 mm 0.00 in0.0 mm
05:20 AM 50.1°F10.1°C 43.2°F6.2°C 77% Calm Calm -- 30.57 in1035.2 mb - 0.00 in0.0 mm 0.00 in0.0 mm
05:30 AM 50.1°F10.1°C 43.2°F6.2°C 77% Calm Calm -- 30.57 in1035.2 mb - 0.00 in0.0 mm 0.00 in0.0 mm
05:40 AM 50.1°F10.1°C 43.2°F6.2°C 77% Calm Calm -- 30.57 in1035.2 mb - 0.00 in0.0 mm 0.00 in0.0 mm
05:50 AM 50.1°F10.1°C 43.2°F6.2°C 77% Calm Calm -- 30.57 in1035.2 mb - 0.00 in0.0 mm 0.00 in0.0 mm
06:00 AM 50.1°F10.1°C 43.2°F6.2°C 77% Calm Calm -- 30.57 in1035.2 mb - 0.00 in0.0 mm 0.00 in0.0 mm
06:10 AM 50.1°F10.1°C 43.2°F6.2°C 77% Calm Calm -- 30.57 in1035.2 mb - 0.00 in0.0 mm 0.00 in0.0 mm
06:20 AM 50.1°F10.1°C 43.2°F6.2°C 77% Calm Calm -- 30.57 in1035.2 mb - 0.00 in0.0 mm 0.00 in0.0 mm
06:30 AM 50.1°F10.1°C 43.2°F6.2°C 77% Calm Calm -- 30.57 in1035.2 mb - 0.00 in0.0 mm 0.00 in0.0 mm
06:40 AM 50.1°F10.1°C 43.5°F6.4°C 78% Calm Calm -- 30.58 in1035.6 mb - 0.00 in0.0 mm 0.00 in0.0 mm
06:50 AM 50.1°F10.1°C 43.5°F6.4°C 78% Calm Calm -- 30.58 in1035.6 mb - 0.00 in0.0 mm 0.00 in0.0 mm
07:00 AM 50.2°F10.1°C 43.6°F6.4°C 78% Calm Calm -- 30.58 in1035.6 mb - 0.00 in0.0 mm 0.00 in0.0 mm
07:10 AM 50.2°F10.1°C 43.6°F6.4°C 78% Calm Calm -- 30.58 in1035.6 mb - 0.00 in0.0 mm 0.00 in0.0 mm
07:20 AM 50.1°F10.1°C 43.5°F6.4°C 78% Calm Calm -- 30.59 in1035.9 mb - 0.00 in0.0 mm 0.00 in0.0 mm
07:30 AM 50.1°F10.1°C 43.5°F6.4°C 78% Calm Calm -- 30.59 in1035.9 mb - 0.00 in0.0 mm 0.00 in0.0 mm
07:40 AM 50.1°F10.1°C 43.6°F6.4°C 78% Calm Calm -- 30.59 in1035.9 mb - 0.00 in0.0 mm 0.00 in0.0 mm
07:50 AM 50.1°F10.1°C 43.5°F6.4°C 78% Calm Calm -- 30.59 in1035.9 mb - 0.00 in0.0 mm 0.00 in0.0 mm
08:00 AM 50.2°F10.1°C 43.9°F6.6°C 79% Calm Calm -- 30.59 in1035.9 mb - 0.00 in0.0 mm 0.00 in0.0 mm
08:10 AM 50.2°F10.1°C 44.0°F6.7°C 79% Calm Calm -- 30.60 in1036.2 mb - 0.00 in0.0 mm 0.00 in0.0 mm
08:20 AM 50.3°F10.2°C 44.1°F6.7°C 79% Calm Calm -- 30.60 in1036.2 mb - 0.00 in0.0 mm 0.00 in0.0 mm
08:30 AM 50.5°F10.3°C 44.2°F6.8°C 79% Calm Calm -- 30.60 in1036.2 mb - 0.00 in0.0 mm 0.00 in0.0 mm
08:40 AM 50.7°F10.4°C 44.5°F6.9°C 79% Calm Calm -- 30.60 in1036.2 mb - 0.00 in0.0 mm 0.00 in0.0 mm
08:50 AM 51.0°F10.6°C 44.7°F7.1°C 79% Calm Calm -- 30.60 in1036.2 mb - 0.00 in0.0 mm 0.00 in0.0 mm
09:00 AM 51.3°F10.7°C 45.0°F7.2°C 79% 1.2 mph E1.9 kmh E 5.8 mph9.3 kmh 30.60 in1036.2 mb - 0.00 in0.0 mm 0.00 in0.0 mm
09:10 AM 51.5°F10.8°C 45.2°F7.3°C 79% Calm Calm 3.5 mph5.6 kmh 30.61 in1036.6 mb - 0.00 in0.0 mm 0.00 in0.0 mm
09:20 AM 51.7°F10.9°C 45.4°F7.4°C 79% Calm Calm -- 30.61 in1036.6 mb - 0.00 in0.0 mm 0.00 in0.0 mm
09:30 AM 52.1°F11.2°C 45.8°F7.7°C 79% Calm Calm -- 30.61 in1036.6 mb - 0.00 in0.0 mm 0.00 in0.0 mm
09:40 AM 52.3°F11.3°C 45.6°F7.6°C 78% 2.3 mph SE3.7 kmh SE 5.8 mph9.3 kmh 30.61 in1036.6 mb - 0.00 in0.0 mm 0.00 in0.0 mm
09:50 AM 52.5°F11.4°C 45.2°F7.3°C 76% 1.2 mph S1.9 kmh S 4.6 mph7.4 kmh 30.61 in1036.6 mb - 0.00 in0.0 mm 0.00 in0.0 mm
10:00 AM 52.9°F11.6°C 45.2°F7.3°C 75% 2.3 mph NE3.7 kmh NE 3.5 mph5.6 kmh 30.61 in1036.6 mb - 0.00 in0.0 mm 0.00 in0.0 mm
10:10 AM 53.3°F11.8°C 45.2°F7.3°C 74% Calm Calm -- 30.61 in1036.6 mb - 0.00 in0.0 mm 0.00 in0.0 mm
10:20 AM 53.5°F11.9°C 45.4°F7.4°C 74% Calm Calm -- 30.61 in1036.6 mb - 0.00 in0.0 mm 0.00 in0.0 mm
10:30 AM 53.6°F12.0°C 45.5°F7.5°C 74% Calm Calm -- 30.61 in1036.6 mb - 0.00 in0.0 mm 0.00 in0.0 mm
10:40 AM 54.3°F12.4°C 46.5°F8.1°C 75% 1.2 mph S1.9 kmh S -- 30.60 in1036.2 mb - 0.00 in0.0 mm 0.00 in0.0 mm
10:50 AM 54.4°F12.4°C 45.9°F7.7°C 73% Calm Calm 3.5 mph5.6 kmh 30.60 in1036.2 mb - 0.00 in0.0 mm 0.00 in0.0 mm
11:00 AM 54.6°F12.6°C 46.5°F8.1°C 74% Calm Calm -- 30.60 in1036.2 mb - 0.00 in0.0 mm 0.00 in0.0 mm
11:10 AM 54.6°F12.6°C 46.1°F7.8°C 73% Calm Calm -- 30.60 in1036.2 mb - 0.00 in0.0 mm 0.00 in0.0 mm
11:20 AM 54.5°F12.5°C 45.7°F7.6°C 72% Calm Calm -- 30.59 in1035.9 mb - 0.00 in0.0 mm 0.00 in0.0 mm
11:30 AM 54.9°F12.7°C 46.0°F7.8°C 72% Calm Calm -- 30.59 in1035.9 mb - 0.00 in0.0 mm 0.00 in0.0 mm
11:40 AM 55.1°F12.8°C 46.2°F7.9°C 72% Calm Calm -- 30.59 in1035.9 mb - 0.00 in0.0 mm 0.00 in0.0 mm
11:50 AM 56.0°F13.3°C 47.5°F8.6°C 73% 3.5 mph ENE5.6 kmh ENE 4.6 mph7.4 kmh 30.59 in1035.9 mb - 0.00 in0.0 mm 0.00 in0.0 mm
12:00 PM 56.0°F13.3°C 47.1°F8.4°C 72% 1.2 mph ENE1.9 kmh ENE 3.5 mph5.6 kmh 30.58 in1035.6 mb - 0.00 in0.0 mm 0.00 in0.0 mm
12:10 PM 55.5°F13.1°C 46.3°F7.9°C 71% 1.2 mph NE1.9 kmh NE 3.5 mph5.6 kmh 30.57 in1035.2 mb - 0.00 in0.0 mm 0.00 in0.0 mm
12:20 PM 55.2°F12.9°C 46.0°F7.8°C 71% Calm Calm -- 30.57 in1035.2 mb - 0.00 in0.0 mm 0.00 in0.0 mm
12:30 PM 56.1°F13.4°C 46.4°F8.0°C 70% Calm Calm -- 30.57 in1035.2 mb - 0.00 in0.0 mm 0.00 in0.0 mm
12:40 PM 55.8°F13.2°C 46.5°F8.1°C 71% 3.5 mph E5.6 kmh E 6.9 mph11.1 kmh 30.57 in1035.2 mb - 0.00 in0.0 mm 0.00 in0.0 mm
12:50 PM 54.9°F12.7°C 46.0°F7.8°C 72% Calm Calm -- 30.56 in1034.9 mb - 0.00 in0.0 mm 0.00 in0.0 mm
01:00 PM 56.7°F13.7°C 47.0°F8.3°C 70% Calm Calm -- 30.56 in1034.9 mb - 0.00 in0.0 mm 0.00 in0.0 mm
01:10 PM 56.1°F13.4°C 46.4°F8.0°C 70% 2.3 mph NE3.7 kmh NE 3.5 mph5.6 kmh 30.56 in1034.9 mb - 0.00 in0.0 mm 0.00 in0.0 mm
01:20 PM 54.8°F12.7°C 46.0°F7.8°C 72% 2.3 mph NE3.7 kmh NE 3.5 mph5.6 kmh 30.56 in1034.9 mb - 0.00 in0.0 mm 0.00 in0.0 mm
01:30 PM 57.5°F14.2°C 47.4°F8.6°C 69% 3.5 mph NE5.6 kmh NE 4.6 mph7.4 kmh 30.55 in1034.5 mb - 0.00 in0.0 mm 0.00 in0.0 mm
01:40 PM 56.8°F13.8°C 47.1°F8.4°C 70% 2.3 mph E3.7 kmh E 4.6 mph7.4 kmh 30.55 in1034.5 mb - 0.00 in0.0 mm 0.00 in0.0 mm
01:50 PM 55.6°F13.1°C 46.4°F8.0°C 71% 1.2 mph ENE1.9 kmh ENE 3.5 mph5.6 kmh 30.55 in1034.5 mb - 0.00 in0.0 mm 0.00 in0.0 mm
02:00 PM 55.9°F13.3°C 46.3°F7.9°C 70% Calm Calm -- 30.55 in1034.5 mb - 0.00 in0.0 mm 0.00 in0.0 mm
02:10 PM 55.6°F13.1°C 46.4°F8.0°C 71% 2.3 mph E3.7 kmh E 3.5 mph5.6 kmh 30.55 in1034.5 mb - 0.00 in0.0 mm 0.00 in0.0 mm
02:20 PM 54.3°F12.4°C 45.1°F7.3°C 71% Calm Calm -- 30.55 in1034.5 mb - 0.00 in0.0 mm 0.00 in0.0 mm
02:30 PM 55.5°F13.1°C 45.9°F7.7°C 70% 1.2 mph NE1.9 kmh NE 2.3 mph3.7 kmh 30.55 in1034.5 mb - 0.00 in0.0 mm 0.00 in0.0 mm
02:40 PM 55.0°F12.8°C 46.1°F7.8°C 72% Calm Calm -- 30.55 in1034.5 mb - 0.00 in0.0 mm 0.00 in0.0 mm
02:50 PM 54.9°F12.7°C 46.1°F7.8°C 72% 1.2 mph E1.9 kmh E 2.3 mph3.7 kmh 30.55 in1034.5 mb - 0.00 in0.0 mm 0.00 in0.0 mm
03:00 PM 54.9°F12.7°C 46.0°F7.8°C 72% 1.2 mph ESE1.9 kmh ESE -- 30.55 in1034.5 mb - 0.00 in0.0 mm 0.00 in0.0 mm
03:10 PM 54.4°F12.4°C 45.9°F7.7°C 73% Calm Calm -- 30.55 in1034.5 mb - 0.00 in0.0 mm 0.00 in0.0 mm
03:20 PM 53.8°F12.1°C 45.3°F7.4°C 73% Calm Calm -- 30.55 in1034.5 mb - 0.00 in0.0 mm 0.00 in0.0 mm
03:30 PM 54.4°F12.4°C 45.9°F7.7°C 73% Calm Calm -- 30.55 in1034.5 mb - 0.00 in0.0 mm 0.00 in0.0 mm
03:40 PM 54.7°F12.6°C 46.3°F7.9°C 73% Calm Calm -- 30.55 in1034.5 mb - 0.00 in0.0 mm 0.00 in0.0 mm
03:50 PM 53.9°F12.2°C 45.8°F7.7°C 74% 3.5 mph NE5.6 kmh NE 4.6 mph7.4 kmh 30.55 in1034.5 mb - 0.00 in0.0 mm 0.00 in0.0 mm
04:00 PM 53.7°F12.1°C 45.6°F7.6°C 74% 1.2 mph E1.9 kmh E -- 30.55 in1034.5 mb - 0.00 in0.0 mm 0.00 in0.0 mm
04:10 PM 53.7°F12.1°C 46.0°F7.8°C 75% Calm Calm 2.3 mph3.7 kmh 30.55 in1034.5 mb - 0.00 in0.0 mm 0.00 in0.0 mm
04:20 PM 53.8°F12.1°C 46.1°F7.8°C 75% Calm Calm -- 30.55 in1034.5 mb - 0.00 in0.0 mm 0.00 in0.0 mm
04:30 PM 53.8°F12.1°C 46.1°F7.8°C 75% 2.3 mph NE3.7 kmh NE 2.3 mph3.7 kmh 30.55 in1034.5 mb - 0.00 in0.0 mm 0.00 in0.0 mm
04:40 PM 53.6°F12.0°C 45.9°F7.7°C 75% 3.5 mph NE5.6 kmh NE 5.8 mph9.3 kmh 30.55 in1034.5 mb - 0.00 in0.0 mm 0.00 in0.0 mm
04:50 PM 53.4°F11.9°C 45.7°F7.6°C 75% 1.2 mph ENE1.9 kmh ENE 3.5 mph5.6 kmh 30.55 in1034.5 mb - 0.00 in0.0 mm 0.00 in0.0 mm
05:00 PM 53.1°F11.7°C 45.0°F7.2°C 74% Calm Calm -- 30.55 in1034.5 mb - 0.00 in0.0 mm 0.00 in0.0 mm
05:10 PM 52.8°F11.6°C 45.1°F7.3°C 75% Calm Calm -- 30.55 in1034.5 mb - 0.00 in0.0 mm 0.00 in0.0 mm
05:20 PM 52.6°F11.4°C 44.9°F7.2°C 75% 3.5 mph NE5.6 kmh NE 5.8 mph9.3 kmh 30.55 in1034.5 mb - 0.00 in0.0 mm 0.00 in0.0 mm
05:30 PM 52.4°F11.3°C 44.7°F7.1°C 75% 2.3 mph E3.7 kmh E 3.5 mph5.6 kmh 30.55 in1034.5 mb - 0.00 in0.0 mm 0.00 in0.0 mm
05:40 PM 52.1°F11.2°C 44.4°F6.9°C 75% Calm Calm -- 30.55 in1034.5 mb - 0.00 in0.0 mm 0.00 in0.0 mm
05:50 PM 52.0°F11.1°C 44.3°F6.8°C 75% Calm Calm -- 30.55 in1034.5 mb - 0.00 in0.0 mm 0.00 in0.0 mm
06:00 PM 51.9°F11.1°C 44.6°F7.0°C 76% Calm Calm -- 30.55 in1034.5 mb - 0.00 in0.0 mm 0.00 in0.0 mm
06:10 PM 51.9°F11.1°C 44.6°F7.0°C 76% 1.2 mph ESE1.9 kmh ESE -- 30.55 in1034.5 mb - 0.00 in0.0 mm 0.00 in0.0 mm
06:20 PM 51.9°F11.1°C 44.6°F7.0°C 76% Calm Calm -- 30.55 in1034.5 mb - 0.00 in0.0 mm 0.00 in0.0 mm
06:30 PM 51.8°F11.0°C 44.5°F6.9°C 76% Calm Calm -- 30.55 in1034.5 mb - 0.00 in0.0 mm 0.00 in0.0 mm
06:40 PM 51.7°F10.9°C 44.4°F6.9°C 76% Calm Calm -- 30.55 in1034.5 mb - 0.00 in0.0 mm 0.00 in0.0 mm
06:50 PM 51.6°F10.9°C 44.3°F6.8°C 76% Calm Calm -- 30.55 in1034.5 mb - 0.00 in0.0 mm 0.00 in0.0 mm
07:00 PM 51.5°F10.8°C 44.2°F6.8°C 76% Calm Calm -- 30.55 in1034.5 mb - 0.00 in0.0 mm 0.00 in0.0 mm
07:10 PM 51.4°F10.8°C 44.1°F6.7°C 76% Calm Calm 3.5 mph5.6 kmh 30.56 in1034.9 mb - 0.00 in0.0 mm 0.00 in0.0 mm
07:20 PM 51.2°F10.7°C 43.9°F6.6°C 76% Calm Calm -- 30.56 in1034.9 mb - 0.00 in0.0 mm 0.00 in0.0 mm
07:30 PM 51.0°F10.6°C 43.7°F6.5°C 76% Calm Calm -- 30.56 in1034.9 mb - 0.00 in0.0 mm 0.00 in0.0 mm
07:40 PM 50.9°F10.5°C 43.6°F6.4°C 76% Calm Calm -- 30.56 in1034.9 mb - 0.00 in0.0 mm 0.00 in0.0 mm
07:50 PM 50.8°F10.4°C 43.8°F6.6°C 77% 1.2 mph ENE1.9 kmh ENE -- 30.56 in1034.9 mb - 0.00 in0.0 mm 0.00 in0.0 mm
08:00 PM 50.7°F10.4°C 43.8°F6.6°C 77% Calm Calm -- 30.56 in1034.9 mb - 0.00 in0.0 mm 0.00 in0.0 mm
08:10 PM 50.6°F10.3°C 43.3°F6.3°C 76% Calm Calm -- 30.56 in1034.9 mb - 0.00 in0.0 mm 0.00 in0.0 mm
08:20 PM 50.5°F10.3°C 43.6°F6.4°C 77% Calm Calm 1.2 mph1.9 kmh 30.56 in1034.9 mb - 0.00 in0.0 mm 0.00 in0.0 mm
08:30 PM 50.4°F10.2°C 43.5°F6.4°C 77% Calm Calm -- 30.56 in1034.9 mb - 0.00 in0.0 mm 0.00 in0.0 mm
08:40 PM 50.4°F10.2°C 43.5°F6.4°C 77% Calm Calm -- 30.56 in1034.9 mb - 0.00 in0.0 mm 0.00 in0.0 mm
08:50 PM 50.3°F10.2°C 43.3°F6.3°C 77% Calm Calm -- 30.56 in1034.9 mb - 0.00 in0.0 mm 0.00 in0.0 mm
09:00 PM 50.0°F10.0°C 43.1°F6.2°C 77% Calm Calm -- 30.56 in1034.9 mb - 0.00 in0.0 mm 0.00 in0.0 mm
09:10 PM 49.8°F9.9°C 42.9°F6.1°C 77% Calm Calm -- 30.56 in1034.9 mb - 0.00 in0.0 mm 0.00 in0.0 mm
09:20 PM 49.4°F9.7°C 42.5°F5.8°C 77% Calm Calm -- 30.56 in1034.9 mb - 0.00 in0.0 mm 0.00 in0.0 mm
09:30 PM 49.0°F9.4°C 42.1°F5.6°C 77% Calm Calm -- 30.56 in1034.9 mb - 0.00 in0.0 mm 0.00 in0.0 mm
09:40 PM 48.5°F9.2°C 41.6°F5.3°C 77% Calm Calm -- 30.56 in1034.9 mb - 0.00 in0.0 mm 0.00 in0.0 mm
09:50 PM 48.1°F8.9°C 41.2°F5.1°C 77% Calm Calm -- 30.56 in1034.9 mb - 0.00 in0.0 mm 0.00 in0.0 mm
10:00 PM 47.6°F8.7°C 40.7°F4.8°C 77% Calm Calm -- 30.56 in1034.9 mb - 0.00 in0.0 mm 0.00 in0.0 mm
10:10 PM 47.4°F8.6°C 40.6°F4.8°C 77% Calm Calm -- 30.56 in1034.9 mb - 0.00 in0.0 mm 0.00 in0.0 mm
10:20 PM 47.4°F8.6°C 40.9°F4.9°C 78% Calm Calm -- 30.55 in1034.5 mb - 0.00 in0.0 mm 0.00 in0.0 mm
10:30 PM 47.5°F8.6°C 41.0°F5.0°C 78% Calm Calm -- 30.55 in1034.5 mb - 0.00 in0.0 mm 0.00 in0.0 mm
10:40 PM 47.7°F8.7°C 41.5°F5.3°C 79% Calm Calm -- 30.55 in1034.5 mb - 0.00 in0.0 mm 0.00 in0.0 mm
10:50 PM 47.9°F8.8°C 42.0°F5.6°C 80% Calm Calm -- 30.54 in1034.2 mb - 0.00 in0.0 mm 0.00 in0.0 mm
11:00 PM 48.1°F8.9°C 42.2°F5.7°C 80% Calm Calm -- 30.55 in1034.5 mb - 0.00 in0.0 mm 0.00 in0.0 mm
11:10 PM 48.2°F9.0°C 42.3°F5.7°C 80% Calm Calm -- 30.54 in1034.2 mb - 0.00 in0.0 mm 0.00 in0.0 mm
11:20 PM 48.4°F9.1°C 42.5°F5.8°C 80% Calm Calm -- 30.55 in1034.5 mb - 0.00 in0.0 mm 0.00 in0.0 mm
11:30 PM 48.4°F9.1°C 42.5°F5.8°C 80% Calm Calm -- 30.55 in1034.5 mb - 0.00 in0.0 mm 0.00 in0.0 mm
11:40 PM 48.4°F9.1°C 42.5°F5.8°C 80% Calm Calm -- 30.55 in1034.5 mb - 0.00 in0.0 mm 0.00 in0.0 mm
11:50 PM 48.4°F9.1°C 42.5°F5.8°C 80% Calm Calm -- 30.55 in1034.5 mb - 0.00 in0.0 mm 0.00 in0.0 mm